sensor_id;sensor_type;location;lat;lon;timestamp;temperature;humidity
12152;DHT22;6139;51.274;7.128;2023-07-29T00:00:32;18.90;99.90
12152;DHT22;6139;51.274;7.128;2023-07-29T00:01:34;18.90;99.90
12152;DHT22;6139;51.274;7.128;2023-07-29T00:02:35;18.90;99.90
12152;DHT22;6139;51.274;7.128;2023-07-29T00:03:37;18.90;99.90
12152;DHT22;6139;51.274;7.128;2023-07-29T00:04:38;18.90;99.90
12152;DHT22;6139;51.274;7.128;2023-07-29T00:05:40;18.90;99.90
12152;DHT22;6139;51.274;7.128;2023-07-29T00:06:42;18.90;99.90
12152;DHT22;6139;51.274;7.128;2023-07-29T00:07:44;18.80;99.90
12152;DHT22;6139;51.274;7.128;2023-07-29T00:08:44;18.90;99.90
12152;DHT22;6139;51.274;7.128;2023-07-29T00:09:48;18.80;99.90
12152;DHT22;6139;51.274;7.128;2023-07-29T00:10:49;18.80;99.90
12152;DHT22;6139;51.274;7.128;2023-07-29T00:11:51;18.80;99.90
12152;DHT22;6139;51.274;7.128;2023-07-29T00:12:52;18.80;99.90
12152;DHT22;6139;51.274;7.128;2023-07-29T00:13:54;18.90;99.90
12152;DHT22;6139;51.274;7.128;2023-07-29T00:14:55;18.90;99.90
12152;DHT22;6139;51.274;7.128;2023-07-29T00:15:57;18.80;99.90
12152;DHT22;6139;51.274;7.128;2023-07-29T00:16:58;18.80;99.90
12152;DHT22;6139;51.274;7.128;2023-07-29T00:18:00;18.80;99.90
12152;DHT22;6139;51.274;7.128;2023-07-29T00:19:02;18.80;99.90
12152;DHT22;6139;51.274;7.128;2023-07-29T00:20:05;18.70;99.90
12152;DHT22;6139;51.274;7.128;2023-07-29T00:21:06;18.80;99.90
12152;DHT22;6139;51.274;7.128;2023-07-29T00:22:08;18.80;99.90
12152;DHT22;6139;51.274;7.128;2023-07-29T00:23:10;18.70;99.90
12152;DHT22;6139;51.274;7.128;2023-07-29T00:24:12;18.70;99.90
12152;DHT22;6139;51.274;7.128;2023-07-29T00:25:14;18.70;99.90
12152;DHT22;6139;51.274;7.128;2023-07-29T00:26:16;18.70;99.90
12152;DHT22;6139;51.274;7.128;2023-07-29T00:27:17;18.70;99.90
12152;DHT22;6139;51.274;7.128;2023-07-29T00:28:19;18.70;99.90
12152;DHT22;6139;51.274;7.128;2023-07-29T00:29:20;18.70;99.90
12152;DHT22;6139;51.274;7.128;2023-07-29T00:30:22;18.70;99.90
12152;DHT22;6139;51.274;7.128;2023-07-29T00:31:23;18.70;99.90
12152;DHT22;6139;51.274;7.128;2023-07-29T00:32:26;18.80;99.90
12152;DHT22;6139;51.274;7.128;2023-07-29T00:33:27;18.70;99.90
12152;DHT22;6139;51.274;7.128;2023-07-29T00:34:29;18.70;99.90
12152;DHT22;6139;51.274;7.128;2023-07-29T00:35:31;18.70;99.90
12152;DHT22;6139;51.274;7.128;2023-07-29T00:36:34;18.70;99.90
12152;DHT22;6139;51.274;7.128;2023-07-29T00:37:36;18.70;99.90
12152;DHT22;6139;51.274;7.128;2023-07-29T00:38:39;18.70;99.90
12152;DHT22;6139;51.274;7.128;2023-07-29T00:39:41;18.70;99.90
12152;DHT22;6139;51.274;7.128;2023-07-29T00:40:45;18.70;99.90
12152;DHT22;6139;51.274;7.128;2023-07-29T00:41:47;18.70;99.90
12152;DHT22;6139;51.274;7.128;2023-07-29T00:42:48;18.60;99.90
12152;DHT22;6139;51.274;7.128;2023-07-29T00:43:50;18.70;99.90
12152;DHT22;6139;51.274;7.128;2023-07-29T00:44:52;18.60;99.90
12152;DHT22;6139;51.274;7.128;2023-07-29T00:45:54;18.60;99.90
12152;DHT22;6139;51.274;7.128;2023-07-29T00:46:58;18.60;99.90
12152;DHT22;6139;51.274;7.128;2023-07-29T00:48:01;18.70;99.90
12152;DHT22;6139;51.274;7.128;2023-07-29T00:49:04;18.60;99.90
12152;DHT22;6139;51.274;7.128;2023-07-29T00:50:05;18.60;99.90
12152;DHT22;6139;51.274;7.128;2023-07-29T00:51:07;18.60;99.90
12152;DHT22;6139;51.274;7.128;2023-07-29T00:52:09;18.60;99.90
12152;DHT22;6139;51.274;7.128;2023-07-29T00:53:12;18.60;99.90
12152;DHT22;6139;51.274;7.128;2023-07-29T00:54:15;18.60;99.90
12152;DHT22;6139;51.274;7.128;2023-07-29T00:55:16;18.60;99.90
12152;DHT22;6139;51.274;7.128;2023-07-29T00:56:19;18.60;99.90
12152;DHT22;6139;51.274;7.128;2023-07-29T00:57:20;18.60;99.90
12152;DHT22;6139;51.274;7.128;2023-07-29T00:58:23;18.60;99.90
12152;DHT22;6139;51.274;7.128;2023-07-29T00:59:25;18.60;99.90
12152;DHT22;6139;51.274;7.128;2023-07-29T01:00:28;18.60;99.90
12152;DHT22;6139;51.274;7.128;2023-07-29T01:01:30;18.60;99.90
12152;DHT22;6139;51.274;7.128;2023-07-29T01:02:32;18.60;99.90
12152;DHT22;6139;51.274;7.128;2023-07-29T01:03:33;18.60;99.90
12152;DHT22;6139;51.274;7.128;2023-07-29T01:04:36;18.60;99.90
12152;DHT22;6139;51.274;7.128;2023-07-29T01:05:44;18.60;99.90
12152;DHT22;6139;51.274;7.128;2023-07-29T01:06:56;18.50;99.90
12152;DHT22;6139;51.274;7.128;2023-07-29T01:08:05;18.50;99.90
12152;DHT22;6139;51.274;7.128;2023-07-29T01:09:14;18.50;99.90
12152;DHT22;6139;51.274;7.128;2023-07-29T01:10:26;18.50;99.90
12152;DHT22;6139;51.274;7.128;2023-07-29T01:11:41;18.50;99.90
12152;DHT22;6139;51.274;7.128;2023-07-29T01:12:50;18.50;99.90
12152;DHT22;6139;51.274;7.128;2023-07-29T01:13:58;18.50;99.90
12152;DHT22;6139;51.274;7.128;2023-07-29T01:15:10;18.50;99.90
12152;DHT22;6139;51.274;7.128;2023-07-29T01:16:17;18.50;99.90
12152;DHT22;6139;51.274;7.128;2023-07-29T01:17:30;18.50;99.90
12152;DHT22;6139;51.274;7.128;2023-07-29T01:18:36;18.50;99.90
12152;DHT22;6139;51.274;7.128;2023-07-29T01:19:43;18.50;99.90
12152;DHT22;6139;51.274;7.128;2023-07-29T01:20:53;18.50;99.90
12152;DHT22;6139;51.274;7.128;2023-07-29T01:21:55;18.50;99.90
12152;DHT22;6139;51.274;7.128;2023-07-29T01:22:57;18.50;99.90
12152;DHT22;6139;51.274;7.128;2023-07-29T01:24:00;18.50;99.90
12152;DHT22;6139;51.274;7.128;2023-07-29T01:25:02;18.50;99.90
12152;DHT22;6139;51.274;7.128;2023-07-29T01:26:04;18.50;99.90
12152;DHT22;6139;51.274;7.128;2023-07-29T01:27:06;18.50;99.90
12152;DHT22;6139;51.274;7.128;2023-07-29T01:28:07;18.50;99.90
12152;DHT22;6139;51.274;7.128;2023-07-29T01:29:09;18.50;99.90
12152;DHT22;6139;51.274;7.128;2023-07-29T01:30:10;18.50;99.90
12152;DHT22;6139;51.274;7.128;2023-07-29T01:31:16;18.50;99.90
12152;DHT22;6139;51.274;7.128;2023-07-29T01:32:25;18.50;99.90
12152;DHT22;6139;51.274;7.128;2023-07-29T01:33:35;18.50;99.90
12152;DHT22;6139;51.274;7.128;2023-07-29T01:34:43;18.50;99.90
12152;DHT22;6139;51.274;7.128;2023-07-29T01:35:49;18.50;99.90
12152;DHT22;6139;51.274;7.128;2023-07-29T01:36:51;18.50;99.90
12152;DHT22;6139;51.274;7.128;2023-07-29T01:37:57;18.50;99.90
12152;DHT22;6139;51.274;7.128;2023-07-29T01:39:02;18.50;99.90
12152;DHT22;6139;51.274;7.128;2023-07-29T01:40:05;18.50;99.90
12152;DHT22;6139;51.274;7.128;2023-07-29T01:41:09;18.50;99.90
12152;DHT22;6139;51.274;7.128;2023-07-29T01:42:10;18.50;99.90
12152;DHT22;6139;51.274;7.128;2023-07-29T01:43:13;18.50;99.90
12152;DHT22;6139;51.274;7.128;2023-07-29T01:44:14;18.50;99.90
12152;DHT22;6139;51.274;7.128;2023-07-29T01:45:16;18.50;99.90
12152;DHT22;6139;51.274;7.128;2023-07-29T01:46:17;18.50;99.90
12152;DHT22;6139;51.274;7.128;2023-07-29T01:47:20;18.50;99.90
12152;DHT22;6139;51.274;7.128;2023-07-29T01:48:23;18.50;99.90
12152;DHT22;6139;51.274;7.128;2023-07-29T01:49:25;18.50;99.90
12152;DHT22;6139;51.274;7.128;2023-07-29T01:50:27;18.50;99.90
12152;DHT22;6139;51.274;7.128;2023-07-29T01:51:28;18.50;99.90
12152;DHT22;6139;51.274;7.128;2023-07-29T01:52:30;18.50;99.90
12152;DHT22;6139;51.274;7.128;2023-07-29T01:53:31;18.50;99.90
12152;DHT22;6139;51.274;7.128;2023-07-29T01:54:34;18.50;99.90
12152;DHT22;6139;51.274;7.128;2023-07-29T01:55:36;18.50;99.90
12152;DHT22;6139;51.274;7.128;2023-07-29T01:56:38;18.50;99.90
12152;DHT22;6139;51.274;7.128;2023-07-29T01:57:39;18.50;99.90
12152;DHT22;6139;51.274;7.128;2023-07-29T01:58:40;18.50;99.90
12152;DHT22;6139;51.274;7.128;2023-07-29T01:59:42;18.50;99.90
12152;DHT22;6139;51.274;7.128;2023-07-29T02:00:43;18.50;99.90
12152;DHT22;6139;51.274;7.128;2023-07-29T02:01:45;18.50;99.90
12152;DHT22;6139;51.274;7.128;2023-07-29T02:02:47;18.40;99.90
12152;DHT22;6139;51.274;7.128;2023-07-29T02:03:49;18.50;99.90
12152;DHT22;6139;51.274;7.128;2023-07-29T02:04:55;18.40;99.90
12152;DHT22;6139;51.274;7.128;2023-07-29T02:05:57;18.40;99.90
12152;DHT22;6139;51.274;7.128;2023-07-29T02:06:58;18.40;99.90
12152;DHT22;6139;51.274;7.128;2023-07-29T02:08:00;18.40;99.90
12152;DHT22;6139;51.274;7.128;2023-07-29T02:09:01;18.40;99.90
12152;DHT22;6139;51.274;7.128;2023-07-29T02:10:07;18.40;99.90
12152;DHT22;6139;51.274;7.128;2023-07-29T02:11:08;18.40;99.90
12152;DHT22;6139;51.274;7.128;2023-07-29T02:12:10;18.40;99.90
12152;DHT22;6139;51.274;7.128;2023-07-29T02:13:14;18.50;99.90
12152;DHT22;6139;51.274;7.128;2023-07-29T02:14:16;18.50;99.90
12152;DHT22;6139;51.274;7.128;2023-07-29T02:15:17;18.40;99.90
12152;DHT22;6139;51.274;7.128;2023-07-29T02:16:19;18.40;99.90
12152;DHT22;6139;51.274;7.128;2023-07-29T02:17:20;18.40;99.90
12152;DHT22;6139;51.274;7.128;2023-07-29T02:18:22;18.40;99.90
12152;DHT22;6139;51.274;7.128;2023-07-29T02:19:23;18.40;99.90
12152;DHT22;6139;51.274;7.128;2023-07-29T02:20:25;18.40;99.90
12152;DHT22;6139;51.274;7.128;2023-07-29T02:21:27;18.50;99.90
12152;DHT22;6139;51.274;7.128;2023-07-29T02:22:29;18.50;99.90
12152;DHT22;6139;51.274;7.128;2023-07-29T02:23:30;18.40;99.90
12152;DHT22;6139;51.274;7.128;2023-07-29T02:24:32;18.50;99.90
12152;DHT22;6139;51.274;7.128;2023-07-29T02:25:36;18.40;99.90
12152;DHT22;6139;51.274;7.128;2023-07-29T02:26:38;18.40;99.90
12152;DHT22;6139;51.274;7.128;2023-07-29T02:27:39;18.50;99.90
12152;DHT22;6139;51.274;7.128;2023-07-29T02:28:41;18.50;99.90
12152;DHT22;6139;51.274;7.128;2023-07-29T02:29:43;18.50;99.90
12152;DHT22;6139;51.274;7.128;2023-07-29T02:30:44;18.50;99.90
12152;DHT22;6139;51.274;7.128;2023-07-29T02:31:45;18.50;99.90
12152;DHT22;6139;51.274;7.128;2023-07-29T02:32:48;18.40;99.90
12152;DHT22;6139;51.274;7.128;2023-07-29T02:33:49;18.40;99.90
12152;DHT22;6139;51.274;7.128;2023-07-29T02:34:52;18.40;99.90
12152;DHT22;6139;51.274;7.128;2023-07-29T02:35:53;18.40;99.90
12152;DHT22;6139;51.274;7.128;2023-07-29T02:36:55;18.40;99.90
12152;DHT22;6139;51.274;7.128;2023-07-29T02:37:56;18.40;99.90
12152;DHT22;6139;51.274;7.128;2023-07-29T02:38:58;18.40;99.90
12152;DHT22;6139;51.274;7.128;2023-07-29T02:39:59;18.40;99.90
12152;DHT22;6139;51.274;7.128;2023-07-29T02:41:03;18.40;99.90
12152;DHT22;6139;51.274;7.128;2023-07-29T02:42:04;18.40;99.90
12152;DHT22;6139;51.274;7.128;2023-07-29T02:43:06;18.40;99.90
12152;DHT22;6139;51.274;7.128;2023-07-29T02:44:07;18.40;99.90
12152;DHT22;6139;51.274;7.128;2023-07-29T02:45:09;18.40;99.90
12152;DHT22;6139;51.274;7.128;2023-07-29T02:46:12;18.40;99.90
12152;DHT22;6139;51.274;7.128;2023-07-29T02:47:14;18.40;99.90
12152;DHT22;6139;51.274;7.128;2023-07-29T02:48:15;18.30;99.90
12152;DHT22;6139;51.274;7.128;2023-07-29T02:49:16;18.40;99.90
12152;DHT22;6139;51.274;7.128;2023-07-29T02:50:18;18.30;99.90
12152;DHT22;6139;51.274;7.128;2023-07-29T02:51:19;18.40;99.90
12152;DHT22;6139;51.274;7.128;2023-07-29T02:52:21;18.30;99.90
12152;DHT22;6139;51.274;7.128;2023-07-29T02:53:22;18.30;99.90
12152;DHT22;6139;51.274;7.128;2023-07-29T02:54:24;18.40;99.90
12152;DHT22;6139;51.274;7.128;2023-07-29T02:55:26;18.40;99.90
12152;DHT22;6139;51.274;7.128;2023-07-29T02:56:30;18.40;99.90
12152;DHT22;6139;51.274;7.128;2023-07-29T02:57:31;18.40;99.90
12152;DHT22;6139;51.274;7.128;2023-07-29T02:58:33;18.40;99.90
12152;DHT22;6139;51.274;7.128;2023-07-29T02:59:34;18.40;99.90
12152;DHT22;6139;51.274;7.128;2023-07-29T03:00:36;18.40;99.90
12152;DHT22;6139;51.274;7.128;2023-07-29T03:01:37;18.40;99.90
12152;DHT22;6139;51.274;7.128;2023-07-29T03:02:39;18.40;99.90
12152;DHT22;6139;51.274;7.128;2023-07-29T03:03:40;18.40;99.90
12152;DHT22;6139;51.274;7.128;2023-07-29T03:04:42;18.40;99.90
12152;DHT22;6139;51.274;7.128;2023-07-29T03:05:43;18.40;99.90
12152;DHT22;6139;51.274;7.128;2023-07-29T03:06:45;18.40;99.90
12152;DHT22;6139;51.274;7.128;2023-07-29T03:07:49;18.40;99.90
12152;DHT22;6139;51.274;7.128;2023-07-29T03:08:50;18.40;99.90
12152;DHT22;6139;51.274;7.128;2023-07-29T03:09:51;18.40;99.90
12152;DHT22;6139;51.274;7.128;2023-07-29T03:10:53;18.40;99.90
12152;DHT22;6139;51.274;7.128;2023-07-29T03:11:57;18.40;99.90
12152;DHT22;6139;51.274;7.128;2023-07-29T03:12:58;18.40;99.90
12152;DHT22;6139;51.274;7.128;2023-07-29T03:13:59;18.40;99.90
12152;DHT22;6139;51.274;7.128;2023-07-29T03:15:04;18.40;99.90
12152;DHT22;6139;51.274;7.128;2023-07-29T03:16:06;18.40;99.90
12152;DHT22;6139;51.274;7.128;2023-07-29T03:17:08;18.40;99.90
12152;DHT22;6139;51.274;7.128;2023-07-29T03:18:10;18.40;99.90
12152;DHT22;6139;51.274;7.128;2023-07-29T03:19:12;18.40;99.90
12152;DHT22;6139;51.274;7.128;2023-07-29T03:20:13;18.40;99.90
12152;DHT22;6139;51.274;7.128;2023-07-29T03:21:15;18.40;99.90
12152;DHT22;6139;51.274;7.128;2023-07-29T03:22:16;18.40;99.90
12152;DHT22;6139;51.274;7.128;2023-07-29T03:23:18;18.40;99.90
12152;DHT22;6139;51.274;7.128;2023-07-29T03:24:19;18.40;99.90
12152;DHT22;6139;51.274;7.128;2023-07-29T03:25:21;18.40;99.90
12152;DHT22;6139;51.274;7.128;2023-07-29T03:26:22;18.40;99.90
12152;DHT22;6139;51.274;7.128;2023-07-29T03:27:26;18.40;99.90
12152;DHT22;6139;51.274;7.128;2023-07-29T03:28:28;18.40;99.90
12152;DHT22;6139;51.274;7.128;2023-07-29T03:29:30;18.40;99.90
12152;DHT22;6139;51.274;7.128;2023-07-29T03:30:31;18.40;99.90
12152;DHT22;6139;51.274;7.128;2023-07-29T03:31:33;18.40;99.90
12152;DHT22;6139;51.274;7.128;2023-07-29T03:32:34;18.40;99.90
12152;DHT22;6139;51.274;7.128;2023-07-29T03:33:36;18.40;99.90
12152;DHT22;6139;51.274;7.128;2023-07-29T03:34:37;18.40;99.90
12152;DHT22;6139;51.274;7.128;2023-07-29T03:35:40;18.40;99.90
12152;DHT22;6139;51.274;7.128;2023-07-29T03:36:45;18.40;99.90
12152;DHT22;6139;51.274;7.128;2023-07-29T03:37:48;18.40;99.90
12152;DHT22;6139;51.274;7.128;2023-07-29T03:38:49;18.40;99.90
12152;DHT22;6139;51.274;7.128;2023-07-29T03:39:51;18.40;99.90
12152;DHT22;6139;51.274;7.128;2023-07-29T03:40:52;18.40;99.90
12152;DHT22;6139;51.274;7.128;2023-07-29T03:41:55;18.40;99.90
12152;DHT22;6139;51.274;7.128;2023-07-29T03:42:57;18.40;99.90
12152;DHT22;6139;51.274;7.128;2023-07-29T03:43:59;18.40;99.90
12152;DHT22;6139;51.274;7.128;2023-07-29T03:45:00;18.50;99.90
12152;DHT22;6139;51.274;7.128;2023-07-29T03:46:02;18.40;99.90
12152;DHT22;6139;51.274;7.128;2023-07-29T03:47:04;18.40;99.90
12152;DHT22;6139;51.274;7.128;2023-07-29T03:48:06;18.40;99.90
12152;DHT22;6139;51.274;7.128;2023-07-29T03:49:07;18.40;99.90
12152;DHT22;6139;51.274;7.128;2023-07-29T03:50:10;18.40;99.90
12152;DHT22;6139;51.274;7.128;2023-07-29T03:51:11;18.40;99.90
12152;DHT22;6139;51.274;7.128;2023-07-29T03:52:12;18.40;99.90
12152;DHT22;6139;51.274;7.128;2023-07-29T03:53:14;18.40;99.90
12152;DHT22;6139;51.274;7.128;2023-07-29T03:54:15;18.40;99.90
12152;DHT22;6139;51.274;7.128;2023-07-29T03:55:17;18.40;99.90
12152;DHT22;6139;51.274;7.128;2023-07-29T03:56:18;18.40;99.90
12152;DHT22;6139;51.274;7.128;2023-07-29T03:57:19;18.40;99.90
12152;DHT22;6139;51.274;7.128;2023-07-29T03:58:22;18.40;99.90
12152;DHT22;6139;51.274;7.128;2023-07-29T03:59:23;18.50;99.90
12152;DHT22;6139;51.274;7.128;2023-07-29T04:00:26;18.40;99.90
12152;DHT22;6139;51.274;7.128;2023-07-29T04:01:28;18.40;99.90
12152;DHT22;6139;51.274;7.128;2023-07-29T04:02:30;18.40;99.90
12152;DHT22;6139;51.274;7.128;2023-07-29T04:03:32;18.40;99.90
12152;DHT22;6139;51.274;7.128;2023-07-29T04:04:34;18.40;99.90
12152;DHT22;6139;51.274;7.128;2023-07-29T04:05:36;18.40;99.90
12152;DHT22;6139;51.274;7.128;2023-07-29T04:06:38;18.40;99.90
12152;DHT22;6139;51.274;7.128;2023-07-29T04:07:39;18.40;99.90
12152;DHT22;6139;51.274;7.128;2023-07-29T04:08:42;18.40;99.90
12152;DHT22;6139;51.274;7.128;2023-07-29T04:09:43;18.40;99.90
12152;DHT22;6139;51.274;7.128;2023-07-29T04:10:45;18.40;99.90
12152;DHT22;6139;51.274;7.128;2023-07-29T04:11:46;18.40;99.90
12152;DHT22;6139;51.274;7.128;2023-07-29T04:12:48;18.40;99.90
12152;DHT22;6139;51.274;7.128;2023-07-29T04:13:50;18.40;99.90
12152;DHT22;6139;51.274;7.128;2023-07-29T04:14:53;18.40;99.90
12152;DHT22;6139;51.274;7.128;2023-07-29T04:15:54;18.40;99.90
12152;DHT22;6139;51.274;7.128;2023-07-29T04:16:56;18.40;99.90
12152;DHT22;6139;51.274;7.128;2023-07-29T04:17:57;18.40;99.90
12152;DHT22;6139;51.274;7.128;2023-07-29T04:18:59;18.40;99.90
12152;DHT22;6139;51.274;7.128;2023-07-29T04:20:00;18.40;99.90
12152;DHT22;6139;51.274;7.128;2023-07-29T04:21:07;18.40;99.90
12152;DHT22;6139;51.274;7.128;2023-07-29T04:22:08;18.40;99.90
12152;DHT22;6139;51.274;7.128;2023-07-29T04:23:10;18.40;99.90
12152;DHT22;6139;51.274;7.128;2023-07-29T04:24:11;18.40;99.90
12152;DHT22;6139;51.274;7.128;2023-07-29T04:25:13;18.40;99.90
12152;DHT22;6139;51.274;7.128;2023-07-29T04:26:15;18.40;99.90
12152;DHT22;6139;51.274;7.128;2023-07-29T04:27:17;18.40;99.90
12152;DHT22;6139;51.274;7.128;2023-07-29T04:28:18;18.40;99.90
12152;DHT22;6139;51.274;7.128;2023-07-29T04:29:21;18.40;99.90
12152;DHT22;6139;51.274;7.128;2023-07-29T04:30:23;18.40;99.90
12152;DHT22;6139;51.274;7.128;2023-07-29T04:31:25;18.40;99.90
12152;DHT22;6139;51.274;7.128;2023-07-29T04:32:26;18.40;99.90
12152;DHT22;6139;51.274;7.128;2023-07-29T04:33:29;18.40;99.90
12152;DHT22;6139;51.274;7.128;2023-07-29T04:34:31;18.40;99.90
12152;DHT22;6139;51.274;7.128;2023-07-29T04:35:34;18.40;99.90
12152;DHT22;6139;51.274;7.128;2023-07-29T04:36:35;18.40;99.90
12152;DHT22;6139;51.274;7.128;2023-07-29T04:37:37;18.40;99.90
12152;DHT22;6139;51.274;7.128;2023-07-29T04:38:38;18.40;99.90
12152;DHT22;6139;51.274;7.128;2023-07-29T04:39:40;18.40;99.90
12152;DHT22;6139;51.274;7.128;2023-07-29T04:40:41;18.40;99.90
12152;DHT22;6139;51.274;7.128;2023-07-29T04:41:43;18.40;99.90
12152;DHT22;6139;51.274;7.128;2023-07-29T04:42:44;18.40;99.90
12152;DHT22;6139;51.274;7.128;2023-07-29T04:43:46;18.40;99.90
12152;DHT22;6139;51.274;7.128;2023-07-29T04:44:49;18.40;99.90
12152;DHT22;6139;51.274;7.128;2023-07-29T04:45:51;18.40;99.90
12152;DHT22;6139;51.274;7.128;2023-07-29T04:46:52;18.40;99.90
12152;DHT22;6139;51.274;7.128;2023-07-29T04:47:54;18.40;99.90
12152;DHT22;6139;51.274;7.128;2023-07-29T04:48:55;18.40;99.90
12152;DHT22;6139;51.274;7.128;2023-07-29T04:49:57;18.40;99.90
12152;DHT22;6139;51.274;7.128;2023-07-29T04:50:58;18.40;99.90
12152;DHT22;6139;51.274;7.128;2023-07-29T04:51:59;18.30;99.90
12152;DHT22;6139;51.274;7.128;2023-07-29T04:53:01;18.30;99.90
12152;DHT22;6139;51.274;7.128;2023-07-29T04:54:02;18.20;99.90
12152;DHT22;6139;51.274;7.128;2023-07-29T04:55:05;18.20;99.90
12152;DHT22;6139;51.274;7.128;2023-07-29T04:56:06;18.20;99.90
12152;DHT22;6139;51.274;7.128;2023-07-29T04:57:07;18.20;99.90
12152;DHT22;6139;51.274;7.128;2023-07-29T04:58:09;18.20;99.90
12152;DHT22;6139;51.274;7.128;2023-07-29T04:59:11;18.20;99.90
12152;DHT22;6139;51.274;7.128;2023-07-29T05:00:15;18.20;99.90
12152;DHT22;6139;51.274;7.128;2023-07-29T05:01:16;18.20;99.90
12152;DHT22;6139;51.274;7.128;2023-07-29T05:02:19;18.10;99.90
12152;DHT22;6139;51.274;7.128;2023-07-29T05:03:20;18.10;99.90
12152;DHT22;6139;51.274;7.128;2023-07-29T05:04:23;18.10;99.90
12152;DHT22;6139;51.274;7.128;2023-07-29T05:05:24;18.10;99.90
12152;DHT22;6139;51.274;7.128;2023-07-29T05:06:26;18.10;99.90
12152;DHT22;6139;51.274;7.128;2023-07-29T05:07:27;18.00;99.90
12152;DHT22;6139;51.274;7.128;2023-07-29T05:08:29;18.00;99.90
12152;DHT22;6139;51.274;7.128;2023-07-29T05:09:30;18.00;99.90
12152;DHT22;6139;51.274;7.128;2023-07-29T05:10:32;18.00;99.90
12152;DHT22;6139;51.274;7.128;2023-07-29T05:11:33;18.00;99.90
12152;DHT22;6139;51.274;7.128;2023-07-29T05:12:35;18.00;99.90
12152;DHT22;6139;51.274;7.128;2023-07-29T05:13:36;18.00;99.90
12152;DHT22;6139;51.274;7.128;2023-07-29T05:14:39;18.00;99.90
12152;DHT22;6139;51.274;7.128;2023-07-29T05:15:41;18.00;99.90
12152;DHT22;6139;51.274;7.128;2023-07-29T05:16:44;18.00;99.90
12152;DHT22;6139;51.274;7.128;2023-07-29T05:17:45;18.00;99.90
12152;DHT22;6139;51.274;7.128;2023-07-29T05:18:47;18.10;99.90
12152;DHT22;6139;51.274;7.128;2023-07-29T05:19:48;18.10;99.90
12152;DHT22;6139;51.274;7.128;2023-07-29T05:20:50;18.10;99.90
12152;DHT22;6139;51.274;7.128;2023-07-29T05:21:51;18.10;99.90
12152;DHT22;6139;51.274;7.128;2023-07-29T05:22:53;18.00;99.90
12152;DHT22;6139;51.274;7.128;2023-07-29T05:23:54;18.00;99.90
12152;DHT22;6139;51.274;7.128;2023-07-29T05:24:56;18.00;99.90
12152;DHT22;6139;51.274;7.128;2023-07-29T05:25:57;18.00;99.90
12152;DHT22;6139;51.274;7.128;2023-07-29T05:26:59;18.00;99.90
12152;DHT22;6139;51.274;7.128;2023-07-29T05:28:01;18.00;99.90
12152;DHT22;6139;51.274;7.128;2023-07-29T05:29:03;18.00;99.90
12152;DHT22;6139;51.274;7.128;2023-07-29T05:30:06;18.00;99.90
12152;DHT22;6139;51.274;7.128;2023-07-29T05:31:09;18.00;99.90
12152;DHT22;6139;51.274;7.128;2023-07-29T05:32:10;18.00;99.90
12152;DHT22;6139;51.274;7.128;2023-07-29T05:33:12;18.00;99.90
12152;DHT22;6139;51.274;7.128;2023-07-29T05:34:14;18.00;99.90
12152;DHT22;6139;51.274;7.128;2023-07-29T05:35:15;18.00;99.90
12152;DHT22;6139;51.274;7.128;2023-07-29T05:36:17;18.00;99.90
12152;DHT22;6139;51.274;7.128;2023-07-29T05:37:18;18.00;99.90
12152;DHT22;6139;51.274;7.128;2023-07-29T05:38:21;18.00;99.90
12152;DHT22;6139;51.274;7.128;2023-07-29T05:39:22;18.00;99.90
12152;DHT22;6139;51.274;7.128;2023-07-29T05:40:25;18.00;99.90
12152;DHT22;6139;51.274;7.128;2023-07-29T05:41:26;18.00;99.90
12152;DHT22;6139;51.274;7.128;2023-07-29T05:42:29;18.00;99.90
12152;DHT22;6139;51.274;7.128;2023-07-29T05:43:30;18.00;99.90
12152;DHT22;6139;51.274;7.128;2023-07-29T05:44:32;18.00;99.90
12152;DHT22;6139;51.274;7.128;2023-07-29T05:45:34;18.00;99.90
12152;DHT22;6139;51.274;7.128;2023-07-29T05:46:38;18.00;99.90
12152;DHT22;6139;51.274;7.128;2023-07-29T05:47:39;18.00;99.90
12152;DHT22;6139;51.274;7.128;2023-07-29T05:48:41;18.00;99.90
12152;DHT22;6139;51.274;7.128;2023-07-29T05:49:42;18.10;99.90
12152;DHT22;6139;51.274;7.128;2023-07-29T05:50:44;18.00;99.90
12152;DHT22;6139;51.274;7.128;2023-07-29T05:51:45;18.10;99.90
12152;DHT22;6139;51.274;7.128;2023-07-29T05:52:47;18.00;99.90
12152;DHT22;6139;51.274;7.128;2023-07-29T05:53:48;18.00;99.90
12152;DHT22;6139;51.274;7.128;2023-07-29T05:54:50;18.00;99.90
12152;DHT22;6139;51.274;7.128;2023-07-29T05:55:51;18.00;99.90
12152;DHT22;6139;51.274;7.128;2023-07-29T05:56:53;18.00;99.90
12152;DHT22;6139;51.274;7.128;2023-07-29T05:57:55;18.00;99.90
12152;DHT22;6139;51.274;7.128;2023-07-29T05:58:56;18.00;99.90
12152;DHT22;6139;51.274;7.128;2023-07-29T05:59:58;18.00;99.90
12152;DHT22;6139;51.274;7.128;2023-07-29T06:01:01;18.00;99.90
12152;DHT22;6139;51.274;7.128;2023-07-29T06:02:05;18.00;99.90
12152;DHT22;6139;51.274;7.128;2023-07-29T06:03:06;18.00;99.90
12152;DHT22;6139;51.274;7.128;2023-07-29T06:04:08;18.00;99.90
12152;DHT22;6139;51.274;7.128;2023-07-29T06:05:09;18.00;99.90
12152;DHT22;6139;51.274;7.128;2023-07-29T06:06:11;18.00;99.90
12152;DHT22;6139;51.274;7.128;2023-07-29T06:07:13;18.00;99.90
12152;DHT22;6139;51.274;7.128;2023-07-29T06:08:15;18.00;99.90
12152;DHT22;6139;51.274;7.128;2023-07-29T06:09:16;18.00;99.90
12152;DHT22;6139;51.274;7.128;2023-07-29T06:10:18;17.90;99.90
12152;DHT22;6139;51.274;7.128;2023-07-29T06:11:20;17.90;99.90
12152;DHT22;6139;51.274;7.128;2023-07-29T06:12:21;18.00;99.90
12152;DHT22;6139;51.274;7.128;2023-07-29T06:13:22;17.90;99.90
12152;DHT22;6139;51.274;7.128;2023-07-29T06:14:24;18.00;99.90
12152;DHT22;6139;51.274;7.128;2023-07-29T06:15:25;18.00;99.90
12152;DHT22;6139;51.274;7.128;2023-07-29T06:16:27;18.00;99.90
12152;DHT22;6139;51.274;7.128;2023-07-29T06:17:30;18.00;99.90
12152;DHT22;6139;51.274;7.128;2023-07-29T06:18:32;18.00;99.90
12152;DHT22;6139;51.274;7.128;2023-07-29T06:19:33;18.00;99.90
12152;DHT22;6139;51.274;7.128;2023-07-29T06:20:35;18.00;99.90
12152;DHT22;6139;51.274;7.128;2023-07-29T06:21:36;17.90;99.90
12152;DHT22;6139;51.274;7.128;2023-07-29T06:22:38;18.00;99.90
12152;DHT22;6139;51.274;7.128;2023-07-29T06:23:39;17.90;99.90
12152;DHT22;6139;51.274;7.128;2023-07-29T06:24:41;17.90;99.90
12152;DHT22;6139;51.274;7.128;2023-07-29T06:25:42;17.90;99.90
12152;DHT22;6139;51.274;7.128;2023-07-29T06:26:44;17.90;99.90
12152;DHT22;6139;51.274;7.128;2023-07-29T06:27:45;17.90;99.90
12152;DHT22;6139;51.274;7.128;2023-07-29T06:28:47;17.90;99.90
12152;DHT22;6139;51.274;7.128;2023-07-29T06:29:48;17.90;99.90
12152;DHT22;6139;51.274;7.128;2023-07-29T06:30:50;17.90;99.90
12152;DHT22;6139;51.274;7.128;2023-07-29T06:31:51;17.90;99.90
12152;DHT22;6139;51.274;7.128;2023-07-29T06:32:54;17.80;99.90
12152;DHT22;6139;51.274;7.128;2023-07-29T06:33:55;17.90;99.90
12152;DHT22;6139;51.274;7.128;2023-07-29T06:34:57;17.80;99.90
12152;DHT22;6139;51.274;7.128;2023-07-29T06:35:58;17.90;99.90
12152;DHT22;6139;51.274;7.128;2023-07-29T06:37:00;17.80;99.90
12152;DHT22;6139;51.274;7.128;2023-07-29T06:38:01;17.80;99.90
12152;DHT22;6139;51.274;7.128;2023-07-29T06:39:03;17.80;99.90